Time;durP1;ratioP1;P1;durP2;ratioP2;P2;SDS_P1;SDS_P2;PMS_P1;PMS_P2;Temp;Humidity;BMP_temperature;BMP_pressure;BME280_temperature;BME280_humidity;BME280_pressure;Samples;Min_cycle;Max_cycle;Signal;HPM_P1;HPM_P2
2022/09/06 00:02:15;;;;;;;5.70;3.15;;;;;;;25.72;54.53;101167.78;4858051;29;20064;-79
2022/09/06 00:05:00;;;;;;;10.40;3.50;;;;;;;25.68;54.39;101161.44;4881438;29;20056;-80
2022/09/06 00:07:44;;;;;;;;;;;;;;;25.60;54.19;101148.75;4880127;29;20053;-81
2022/09/06 00:10:30;;;;;;;15.38;4.10;;;;;;;25.47;54.47;101135.25;4873577;29;19916;-80
2022/09/06 00:13:14;;;;;;;6.68;3.30;;;;;;;25.41;55.21;101138.88;4845328;29;20042;-80
2022/09/06 00:16:05;;;;;;;8.98;3.88;;;;;;;25.18;55.57;101133.81;4859074;29;20049;-81
2022/09/06 00:18:54;;;;;;;7.28;3.55;;;;;;;25.42;55.57;101135.69;4863195;29;20053;-81
2022/09/06 00:21:39;;;;;;;6.53;3.00;;;;;;;25.45;55.08;101142.41;4863904;29;20049;-81
2022/09/06 00:24:24;;;;;;;4.78;4.00;;;;;;;25.49;54.85;101129.28;4863738;29;20438;-81
2022/09/06 00:27:08;;;;;;;6.18;3.72;;;;;;;25.45;55.00;101115.38;4844505;29;20053;-81
2022/09/06 00:29:53;;;;;;;8.15;3.75;;;;;;;25.33;54.81;101124.22;4845834;29;20057;-80
2022/09/06 00:32:38;;;;;;;;;;;;;;;25.31;55.40;101128.59;4845764;29;20057;-81
2022/09/06 00:35:24;;;;;;;5.18;3.10;;;;;;;25.46;54.91;101125.31;4848187;29;19916;-81
2022/09/06 00:38:10;;;;;;;6.05;2.88;;;;;;;25.53;54.80;101124.50;4863317;29;20431;-80
2022/09/06 00:40:56;;;;;;;5.45;2.80;;;;;;;25.59;54.53;101136.03;4863381;29;20056;-81
2022/09/06 00:43:41;;;;;;;5.18;2.97;;;;;;;25.60;54.44;101134.84;4863266;29;20056;-80
2022/09/06 00:46:29;;;;;;;4.53;3.15;;;;;;;25.62;54.64;101133.22;4853799;29;20057;-80
2022/09/06 00:49:23;;;;;;;5.88;3.40;;;;;;;25.63;54.64;101131.22;4844840;29;20053;-80
2022/09/06 00:52:12;;;;;;;5.55;3.35;;;;;;;25.60;54.39;101126.47;4844817;29;20093;-81
2022/09/06 00:54:57;;;;;;;9.35;3.17;;;;;;;25.59;54.83;101128.47;4845215;29;20464;-80
2022/09/06 00:57:42;;;;;;;3.85;3.47;;;;;;;25.59;54.37;101124.88;4844711;29;20061;-80
2022/09/06 01:00:27;;;;;;;6.00;3.17;;;;;;;25.57;54.47;101130.06;4844531;29;20069;-80
2022/09/06 01:03:12;;;;;;;6.43;2.63;;;;;;;25.55;54.50;101122.91;4844221;29;20057;-80
2022/09/06 01:06:16;;;;;;;5.82;3.28;;;;;;;25.54;54.44;101132.44;4845937;29;20530;-81
2022/09/06 01:09:41;;;;;;;4.20;3.08;;;;;;;25.51;54.60;101124.88;4866523;29;20064;-80
2022/09/06 01:13:02;;;;;;;3.70;2.70;;;;;;;25.58;54.19;101140.00;4866079;29;20064;-80
2022/09/06 01:16:24;;;;;;;10.95;3.53;;;;;;;25.17;54.56;101137.81;4866268;29;20061;-80
2022/09/06 01:19:24;;;;;;;9.45;4.20;;;;;;;25.05;54.65;101141.81;4847371;29;20060;-80
2022/09/06 01:22:22;;;;;;;11.63;3.78;;;;;;;25.24;53.98;101137.78;4848197;29;20084;-80
2022/09/06 01:25:25;;;;;;;6.28;2.90;;;;;;;25.20;54.63;101136.97;4847870;29;20056;-81
2022/09/06 01:28:11;;;;;;;5.40;3.08;;;;;;;25.24;54.67;101140.56;4863081;29;20056;-81
2022/09/06 01:31:10;;;;;;;4.47;3.33;;;;;;;25.28;55.38;101137.75;4866264;29;20093;-80
2022/09/06 01:34:04;;;;;;;4.65;2.53;;;;;;;25.33;55.00;101145.69;4865460;29;20061;-80
2022/09/06 01:36:58;;;;;;;4.78;2.67;;;;;;;25.37;54.83;101146.47;4875881;29;20045;-80
2022/09/06 01:39:43;;;;;;;7.18;2.75;;;;;;;25.42;54.69;101144.03;4855585;29;20053;-79
2022/09/06 01:42:30;;;;;;;;;;;;;;;25.47;54.65;101145.59;4856414;29;20053;-80
2022/09/06 01:45:19;;;;;;;5.72;2.90;;;;;;;25.47;54.44;101138.06;4857701;29;19916;-80
2022/09/06 01:48:03;;;;;;;4.78;2.60;;;;;;;25.45;54.37;101142.41;4860849;29;20053;-79
2022/09/06 01:51:02;;;;;;;5.78;2.30;;;;;;;25.49;54.25;101143.22;4873664;29;20053;-79
2022/09/06 01:54:09;;;;;;;4.63;2.65;;;;;;;25.48;54.47;101150.78;4873610;29;20048;-79
2022/09/06 01:57:05;;;;;;;4.38;2.38;;;;;;;25.38;53.85;101143.28;4878483;29;20064;-79
2022/09/06 02:00:10;;;;;;;6.47;3.72;;;;;;;25.26;53.99;101140.94;4858143;29;20057;-79
2022/09/06 02:03:22;;;;;;;5.80;2.22;;;;;;;25.29;54.92;101144.91;4855052;29;20137;-79
2022/09/06 02:06:17;;;;;;;5.07;3.10;;;;;;;25.39;54.60;101149.63;4870601;29;20062;-79
2022/09/06 02:09:07;;;;;;;8.20;3.40;;;;;;;25.30;54.24;101135.34;4863228;29;20056;-79
2022/09/06 02:12:02;;;;;;;3.88;2.85;;;;;;;25.09;55.12;101144.63;4876645;29;20423;-79
2022/09/06 02:15:06;;;;;;;5.68;3.40;;;;;;;25.22;54.91;101142.16;4872158;29;20064;-79
2022/09/06 02:17:58;;;;;;;7.57;2.85;;;;;;;25.27;54.50;101138.94;4876475;29;20056;-79
2022/09/06 02:20:51;;;;;;;4.85;2.60;;;;;;;25.36;54.62;101142.09;4857441;29;20078;-79
2022/09/06 02:23:39;;;;;;;4.35;2.53;;;;;;;25.34;54.13;101136.94;4854765;29;20049;-80
2022/09/06 02:26:27;;;;;;;6.25;2.70;;;;;;;25.36;54.44;101139.28;4852994;29;20420;-80
2022/09/06 02:29:14;;;;;;;6.15;2.53;;;;;;;25.39;54.14;101139.31;4856430;29;20522;-80
2022/09/06 02:32:05;;;;;;;3.65;2.25;;;;;;;25.43;54.38;101142.84;4870824;29;20057;-80
2022/09/06 02:34:54;;;;;;;4.55;3.05;;;;;;;25.09;54.06;101141.81;4869257;29;20053;-81
2022/09/06 02:37:40;;;;;;;5.45;3.00;;;;;;;24.67;55.19;101137.94;4868973;29;20057;-79
2022/09/06 02:40:25;;;;;;;7.05;3.22;;;;;;;24.51;55.72;101132.00;4851529;29;20053;-79
2022/09/06 02:43:09;;;;;;;7.43;4.22;;;;;;;24.31;56.28;101128.06;4850473;29;20053;-78
2022/09/06 02:45:54;;;;;;;9.30;3.42;;;;;;;24.37;57.18;101128.47;4853396;29;20053;-80
2022/09/06 02:48:39;;;;;;;7.32;3.70;;;;;;;24.43;56.61;101126.88;4856166;29;20056;-81
2022/09/06 02:51:24;;;;;;;7.47;4.65;;;;;;;24.55;55.84;101132.00;4869754;29;20053;-79
2022/09/06 02:54:09;;;;;;;5.18;3.50;;;;;;;24.69;55.99;101129.97;4871180;29;20431;-80
2022/09/06 02:56:54;;;;;;;7.30;2.97;;;;;;;24.95;55.52;101130.72;4870989;29;20052;-80
2022/09/06 02:59:39;;;;;;;4.28;2.45;;;;;;;25.09;55.07;101130.69;4861307;29;20057;-79
2022/09/06 03:02:24;;;;;;;4.97;3.92;;;;;;;25.07;54.65;101130.28;4855081;29;20061;-78
2022/09/06 03:05:10;;;;;;;7.22;4.20;;;;;;;24.60;55.48;101134.38;4854672;29;20053;-79
2022/09/06 03:07:55;;;;;;;9.38;3.97;;;;;;;24.24;56.18;101128.06;4857658;29;20416;-78
2022/09/06 03:10:46;;;;;;;11.98;4.20;;;;;;;24.27;56.56;101127.28;4870872;29;20049;-79
2022/09/06 03:13:31;;;;;;;4.93;2.97;;;;;;;24.65;56.55;101139.53;4872354;29;20048;-79
2022/09/06 03:16:16;;;;;;;4.80;2.70;;;;;;;24.86;55.74;101131.13;4872423;29;20056;-79
2022/09/06 03:19:01;;;;;;;8.00;2.90;;;;;;;24.98;55.45;101138.28;4869984;29;20065;-79
2022/09/06 03:21:46;;;;;;;5.28;3.00;;;;;;;25.04;55.03;101128.31;4876528;29;20059;-79
2022/09/06 03:24:32;;;;;;;5.88;3.45;;;;;;;25.11;54.81;101128.28;4881620;29;20052;-78
2022/09/06 03:27:17;;;;;;;12.20;4.05;;;;;;;24.87;54.51;101124.41;4879421;29;20067;-78
2022/09/06 03:30:03;;;;;;;4.35;3.83;;;;;;;24.52;55.59;101119.72;4882709;29;20041;-79
2022/09/06 03:32:48;;;;;;;4.32;3.70;;;;;;;24.32;56.07;101120.53;4874009;29;20062;-79
2022/09/06 03:35:33;;;;;;;7.57;3.90;;;;;;;24.59;55.76;101125.22;4872343;29;20052;-78
2022/09/06 03:38:19;;;;;;;6.22;3.70;;;;;;;24.68;55.73;101122.84;4880577;29;20067;-79
2022/09/06 03:41:04;;;;;;;7.00;4.03;;;;;;;24.46;55.51;101114.94;4877709;29;20064;-79
2022/09/06 03:43:49;;;;;;;8.15;3.70;;;;;;;24.19;56.08;101106.22;4871284;29;20056;-78
2022/09/06 03:46:33;;;;;;;;;;;;;;;23.99;57.21;101110.56;4872292;29;20052;-80
2022/09/06 03:49:18;;;;;;;5.13;3.60;;;;;;;23.88;57.54;101094.69;4870953;29;19924;-79
2022/09/06 03:52:03;;;;;;;8.18;2.72;;;;;;;23.94;57.82;101099.84;4861615;29;20056;-80
2022/09/06 03:54:48;;;;;;;6.88;3.25;;;;;;;24.10;57.19;101103.84;4880429;29;20068;-79
2022/09/06 03:57:33;;;;;;;7.28;2.78;;;;;;;24.41;56.81;101098.66;4884282;29;20052;-79
2022/09/06 04:00:18;;;;;;;13.15;3.67;;;;;;;24.56;56.17;101105.78;4882963;29;20060;-78
2022/09/06 04:03:03;;;;;;;11.50;3.83;;;;;;;24.31;56.30;101096.69;4871723;29;20529;-79
2022/09/06 04:05:48;;;;;;;7.65;3.22;;;;;;;24.44;56.49;101101.44;4875160;29;20053;-79
2022/09/06 04:08:34;;;;;;;6.30;3.10;;;;;;;24.73;55.78;101107.75;4890862;29;20335;-79
2022/09/06 04:11:19;;;;;;;9.63;3.90;;;;;;;24.84;55.56;101104.91;4879439;29;20048;-79
2022/09/06 04:14:04;;;;;;;8.80;2.65;;;;;;;24.90;55.23;101109.69;4863059;29;20057;-78
2022/09/06 04:16:49;;;;;;;4.43;2.75;;;;;;;24.94;54.97;101112.47;4852565;29;20052;-81
2022/09/06 04:19:34;;;;;;;9.23;3.90;;;;;;;24.71;54.63;101108.13;4851502;29;20064;-80
2022/09/06 04:22:19;;;;;;;4.80;2.90;;;;;;;24.73;55.70;101110.53;4888392;29;20052;-80
2022/09/06 04:25:04;;;;;;;5.93;3.17;;;;;;;24.76;54.86;101112.47;4883062;29;20068;-80
2022/09/06 04:27:49;;;;;;;4.03;2.53;;;;;;;24.80;55.64;101110.47;4884830;29;20061;-80
2022/09/06 04:30:33;;;;;;;;;;;;;;;24.94;55.17;101115.25;4887489;29;20541;-80
2022/09/06 04:33:19;;;;;;;12.88;3.22;;;;;;;24.94;55.03;101109.69;4869166;29;19916;-80
2022/09/06 04:36:06;;;;;;;7.43;2.85;;;;;;;24.97;55.16;101115.22;4867708;29;20049;-80
2022/09/06 04:38:51;;;;;;;9.65;2.63;;;;;;;24.94;54.67;101113.22;4889148;29;20052;-80
2022/09/06 04:41:36;;;;;;;6.57;2.72;;;;;;;24.95;54.58;101114.03;4890183;29;20048;-80
2022/09/06 04:44:21;;;;;;;3.70;2.97;;;;;;;24.92;54.62;101115.63;4866645;29;20061;-80
2022/09/06 04:47:13;;;;;;;4.07;2.60;;;;;;;24.98;54.49;101121.59;4857748;29;20062;-79
2022/09/06 04:49:58;;;;;;;11.32;4.30;;;;;;;24.96;54.17;101129.53;4854164;29;20539;-80
2022/09/06 04:52:43;;;;;;;7.88;3.20;;;;;;;24.94;54.53;101123.59;4851885;29;20042;-79
2022/09/06 04:55:30;;;;;;;9.88;3.45;;;;;;;24.93;54.79;101122.81;4855519;29;20060;-80
2022/09/06 04:58:15;;;;;;;4.50;2.80;;;;;;;24.93;54.69;101124.78;4856479;29;20056;-80
2022/09/06 05:01:00;;;;;;;6.72;2.88;;;;;;;24.88;54.81;101123.22;4856414;29;20065;-80
2022/09/06 05:03:45;;;;;;;13.15;3.25;;;;;;;24.90;54.66;101122.78;4866651;29;20060;-81
2022/09/06 05:06:30;;;;;;;6.15;3.58;;;;;;;24.92;54.76;101120.41;4873220;29;20049;-80
2022/09/06 05:09:15;;;;;;;4.30;3.40;;;;;;;24.91;55.11;101129.94;4873833;29;20053;-80
2022/09/06 05:12:00;;;;;;;10.43;4.25;;;;;;;24.78;54.88;101121.22;4876454;29;20052;-80
2022/09/06 05:14:45;;;;;;;4.10;3.38;;;;;;;24.88;54.73;101130.78;4853585;29;20041;-80
2022/09/06 05:17:30;;;;;;;6.57;2.45;;;;;;;24.86;54.94;101142.25;4862900;29;20053;-80
2022/09/06 05:20:15;;;;;;;6.03;3.03;;;;;;;24.93;54.97;101130.34;4876210;29;20555;-80
2022/09/06 05:23:00;;;;;;;10.68;3.25;;;;;;;24.95;54.76;101137.09;4876615;29;20064;-79
2022/09/06 05:25:46;;;;;;;11.75;3.38;;;;;;;24.95;54.84;101144.63;4870958;29;20511;-79
2022/09/06 05:28:30;;;;;;;13.90;3.40;;;;;;;24.95;54.84;101137.09;4870841;29;20060;-79
2022/09/06 05:31:27;;;;;;;10.63;3.45;;;;;;;24.96;54.65;101129.53;4871908;29;20049;-79
2022/09/06 05:34:13;;;;;;;5.47;3.08;;;;;;;24.98;54.67;101135.50;4856199;29;20065;-79
2022/09/06 05:36:58;;;;;;;8.15;3.60;;;;;;;25.02;54.79;101136.28;4867867;29;20060;-78
2022/09/06 05:39:43;;;;;;;12.32;3.33;;;;;;;25.05;55.03;101141.03;4871148;29;20419;-79
2022/09/06 05:42:28;;;;;;;;;;;;;;;25.10;54.90;101146.16;4871137;29;20057;-79
2022/09/06 05:45:12;;;;;;;14.83;4.47;;;;;;;25.09;55.08;101141.81;4872239;29;19916;-79
2022/09/06 05:47:57;;;;;;;16.15;4.80;;;;;;;24.97;54.94;101133.91;4873129;29;20053;-78
2022/09/06 05:50:42;;;;;;;48.70;7.03;;;;;;;24.59;56.37;101138.34;4871302;29;20053;-79
2022/09/06 05:53:31;;;;;;;;;;;;;;;24.42;57.20;101141.97;4874443;29;20052;-79
2022/09/06 05:56:16;;;;;;;27.00;6.25;;;;;;;24.12;59.61;101142.34;4871883;29;19916;-79
2022/09/06 05:59:01;;;;;;;13.05;4.78;;;;;;;23.77;60.58;101141.09;4870845;29;20048;-79
2022/09/06 06:01:50;;;;;;;;;;;;;;;23.99;59.61;101152.25;4876257;29;20054;-78
2022/09/06 06:04:34;;;;;;;10.25;3.80;;;;;;;24.12;59.34;101145.13;4872694;29;20310;-78
2022/09/06 06:07:19;;;;;;;14.63;4.97;;;;;;;24.07;59.81;101143.53;4872532;29;20053;-78
2022/09/06 06:10:05;;;;;;;8.52;4.18;;;;;;;24.13;58.70;101150.28;4876134;29;20049;-79
2022/09/06 06:12:49;;;;;;;7.97;3.50;;;;;;;24.49;58.11;101150.28;4872666;29;20049;-78
2022/09/06 06:15:34;;;;;;;8.43;4.03;;;;;;;24.60;57.81;101148.28;4872917;29;20052;-79
2022/09/06 06:18:19;;;;;;;18.20;5.78;;;;;;;24.42;58.92;101145.53;4875033;29;20057;-79
2022/09/06 06:21:13;;;;;;;9.27;6.78;;;;;;;24.23;59.72;101148.72;4870345;29;20530;-79
2022/09/06 06:24:00;;;;;;;12.45;5.82;;;;;;;24.37;59.29;101145.94;4871554;29;20522;-79
2022/09/06 06:26:45;;;;;;;15.63;4.43;;;;;;;24.67;57.89;101151.84;4873573;29;20553;-78
2022/09/06 06:29:30;;;;;;;9.27;5.10;;;;;;;24.68;58.17;101161.00;4884694;29;20053;-78
2022/09/06 06:32:15;;;;;;;15.50;8.25;;;;;;;24.54;58.61;101153.44;4877313;29;20068;-78
2022/09/06 06:34:59;;;;;;;12.02;7.82;;;;;;;24.57;58.12;101149.09;4881428;29;20541;-77
2022/09/06 06:37:44;;;;;;;;;;;;;;;24.67;58.45;101156.63;4887674;29;20060;-80
2022/09/06 06:40:29;;;;;;;9.85;5.05;;;;;;;24.83;57.90;101154.19;4880570;29;20335;-77
2022/09/06 06:43:14;;;;;;;11.48;5.25;;;;;;;25.05;57.55;101157.72;4879106;29;20056;-76
2022/09/06 06:45:58;;;;;;;;;;;;;;;25.12;57.16;101163.28;4877784;29;20069;-77
2022/09/06 06:48:44;;;;;;;20.20;6.80;;;;;;;24.99;57.74;101162.13;4878869;29;20386;-76
2022/09/06 06:51:31;;;;;;;13.10;8.02;;;;;;;24.90;58.37;101168.09;4865999;29;20294;-76
2022/09/06 06:54:16;;;;;;;19.25;8.75;;;;;;;24.91;58.84;101166.91;4874310;29;20506;-76
2022/09/06 06:57:03;;;;;;;22.85;10.90;;;;;;;25.07;58.30;101172.84;4859974;29;20057;-75
2022/09/06 06:59:48;;;;;;;16.10;9.32;;;;;;;25.00;58.91;101172.84;4860729;29;20053;-76
2022/09/06 07:02:32;;;;;;;15.98;9.50;;;;;;;24.81;59.40;101158.56;4859220;29;20046;-76
2022/09/06 07:05:17;;;;;;;11.27;7.53;;;;;;;25.10;59.03;101172.03;4866097;29;20051;-75
2022/09/06 07:08:02;;;;;;;14.05;7.32;;;;;;;25.24;58.76;101162.03;4855457;29;20044;-76
2022/09/06 07:10:47;;;;;;;17.33;8.20;;;;;;;25.17;59.24;101165.63;4858168;29;20068;-76
2022/09/06 07:13:35;;;;;;;;;;;;;;;25.36;58.80;101173.50;4879079;29;20459;-76
2022/09/06 07:16:22;;;;;;;20.38;7.53;;;;;;;25.42;58.09;101163.53;4878303;29;19915;-76
2022/09/06 07:19:06;;;;;;;15.32;8.27;;;;;;;25.47;55.38;101157.53;4882161;29;20093;-76
2022/09/06 07:21:51;;;;;;;15.95;8.52;;;;;;;25.58;55.77;101156.72;4878645;29;20041;-76
2022/09/06 07:24:38;;;;;;;15.10;8.02;;;;;;;25.68;55.95;101155.88;4878562;29;20060;-76
2022/09/06 07:27:22;;;;;;;13.88;6.65;;;;;;;25.64;57.57;101155.91;4878429;29;20041;-76
2022/09/06 07:30:07;;;;;;;;;;;;;;;25.70;55.30;101162.59;4878972;29;20049;-76
2022/09/06 07:32:52;;;;;;;9.60;7.30;;;;;;;26.12;54.86;101166.28;4860559;29;19916;-76
2022/09/06 07:35:36;;;;;;;17.88;7.45;;;;;;;25.93;56.89;101176.78;4852364;29;20049;-77
2022/09/06 07:38:21;;;;;;;10.40;5.95;;;;;;;26.01;56.31;101179.53;4878531;29;20045;-78
2022/09/06 07:41:06;;;;;;;;;;;;;;;25.96;57.16;101172.38;4851461;29;20052;-77
2022/09/06 07:43:53;;;;;;;16.88;6.88;;;;;;;25.95;56.75;101173.59;4851219;29;19916;-77
2022/09/06 07:46:38;;;;;;;8.23;6.28;;;;;;;26.09;55.92;101175.50;4847443;29;20049;-77
2022/09/06 07:49:22;;;;;;;12.82;6.82;;;;;;;26.05;55.63;101164.38;4844743;29;20064;-77
2022/09/06 07:52:07;;;;;;;8.38;5.15;;;;;;;26.38;53.55;101171.28;4852926;29;20059;-77
2022/09/06 07:54:52;;;;;;;;;;;;;;;25.89;53.68;101172.44;4881061;29;20060;-78
2022/09/06 07:57:37;;;;;;;11.43;5.88;;;;;;;27.23;50.42;101179.56;4870629;29;19924;-81
2022/09/06 08:00:22;;;;;;;7.72;5.10;;;;;;;28.58;47.92;101177.59;4867156;29;20049;-79
2022/09/06 08:03:06;;;;;;;;;;;;;;;29.26;46.04;101174.28;4867140;29;20057;-79
2022/09/06 08:05:50;;;;;;;8.98;4.45;;;;;;;29.36;45.77;101178.13;4865342;29;19916;-76
2022/09/06 08:08:35;;;;;;;11.18;5.68;;;;;;;30.45;42.97;101181.16;4864596;29;20061;-79
2022/09/06 08:11:21;;;;;;;13.60;6.03;;;;;;;28.35;47.42;101171.97;4865388;29;20042;-78
2022/09/06 08:14:08;;;;;;;11.48;4.38;;;;;;;30.35;43.07;101175.81;4862948;29;20060;-77
2022/09/06 08:16:53;;;;;;;15.70;3.75;;;;;;;31.50;40.45;101181.44;4866598;29;20053;-78
2022/09/06 08:19:38;;;;;;;15.45;6.00;;;;;;;30.29;43.43;101183.16;4870699;29;20057;-78
2022/09/06 08:22:23;;;;;;;16.83;6.47;;;;;;;30.83;40.72;101183.38;4868686;29;20407;-78
2022/09/06 08:25:09;;;;;;;7.13;5.35;;;;;;;29.81;43.46;101184.72;4864478;29;20053;-77
2022/09/06 08:27:54;;;;;;;9.20;6.13;;;;;;;30.93;40.98;101187.94;4869314;29;20048;-78
2022/09/06 08:30:38;;;;;;;11.27;4.55;;;;;;;29.51;44.44;101182.19;4871772;29;20068;-79
2022/09/06 08:33:24;;;;;;;12.05;5.55;;;;;;;32.61;37.59;101193.56;4881055;29;20044;-79
2022/09/06 08:36:10;;;;;;;12.05;4.93;;;;;;;31.94;39.06;101196.59;4875327;29;20057;-79
2022/09/06 08:38:55;;;;;;;15.25;5.30;;;;;;;29.74;43.36;101196.09;4883412;29;20053;-80
2022/09/06 08:42:02;;;;;;;14.45;4.82;;;;;;;30.52;42.19;101191.44;4879422;29;20053;-78
2022/09/06 08:44:52;;;;;;;13.65;4.20;;;;;;;31.83;39.49;101198.94;4880971;29;20051;-84
2022/09/06 08:47:37;;;;;;;11.05;3.60;;;;;;;31.01;40.94;101195.69;4884872;29;20049;-84
2022/09/06 08:50:27;;;;;;;26.70;4.63;;;;;;;30.58;41.89;101196.06;4889684;29;20064;-85
2022/09/06 08:53:18;;;;;;;68.32;11.80;;;;;;;29.62;43.83;101193.94;4887123;29;20041;-83
2022/09/06 08:56:22;;;;;;;319.17;69.68;;;;;;;28.80;45.78;101195.59;4884622;29;20411;-83
2022/09/06 08:59:12;;;;;;;452.65;103.07;;;;;;;28.39;47.18;101186.72;4864359;29;20045;-84
2022/09/06 09:02:10;;;;;;;325.83;69.13;;;;;;;28.47;46.87;101179.78;4885753;29;20044;-83
2022/09/06 09:04:59;;;;;;;235.23;46.88;;;;;;;28.14;47.82;101177.97;4885920;29;20507;-83
2022/09/06 09:08:05;;;;;;;90.38;19.60;;;;;;;28.01;48.14;101178.50;4885449;29;20044;-83
2022/09/06 09:10:58;;;;;;;131.07;25.50;;;;;;;28.11;47.92;101170.38;4885796;29;20045;-83
2022/09/06 09:13:46;;;;;;;57.90;15.18;;;;;;;27.98;48.26;101170.19;4888004;29;20037;-83
2022/09/06 09:16:31;;;;;;;32.05;10.32;;;;;;;28.14;48.01;101161.94;4886151;29;20487;-82
2022/09/06 09:19:16;;;;;;;68.93;18.88;;;;;;;28.07;48.71;101156.44;4884796;29;20415;-82
2022/09/06 09:22:01;;;;;;;54.25;12.88;;;;;;;27.88;49.02;101154.38;4885653;29;20049;-83
2022/09/06 09:24:47;;;;;;;30.15;6.82;;;;;;;28.27;48.87;101156.56;4885175;29;20045;-81
2022/09/06 09:27:32;;;;;;;52.97;12.77;;;;;;;28.56;47.03;101146.44;4884191;29;20055;-83
2022/09/06 09:30:17;;;;;;;30.33;9.00;;;;;;;28.53;47.38;101144.50;4887918;29;20049;-83
2022/09/06 09:33:20;;;;;;;18.52;6.75;;;;;;;29.11;46.11;101137.34;4886890;29;20056;-83
2022/09/06 09:36:10;;;;;;;11.93;6.15;;;;;;;28.82;47.66;101134.34;4885047;29;20053;-83
2022/09/06 09:38:55;;;;;;;23.35;7.80;;;;;;;28.29;47.66;101142.94;4888061;29;20065;-83
2022/09/06 09:41:42;;;;;;;12.70;5.88;;;;;;;28.73;48.30;101136.94;4867645;29;20046;-83
2022/09/06 09:44:28;;;;;;;16.33;6.80;;;;;;;28.86;46.98;101135.06;4865813;29;20060;-83
2022/09/06 09:47:24;;;;;;;19.48;6.13;;;;;;;29.09;46.79;101141.84;4863561;29;20427;-83
2022/09/06 09:50:33;;;;;;;18.05;6.70;;;;;;;29.30;46.70;101136.56;4858626;29;20064;-82
2022/09/06 09:53:21;;;;;;;11.18;5.25;;;;;;;29.31;46.14;101131.75;4859384;29;20046;-82
2022/09/06 09:56:06;;;;;;;15.20;5.55;;;;;;;28.79;46.60;101126.84;4857694;29;20056;-83
2022/09/06 09:58:53;;;;;;;10.60;5.57;;;;;;;28.74;46.86;101132.94;4861833;29;20519;-82
2022/09/06 10:01:38;;;;;;;8.77;4.90;;;;;;;28.82;46.56;101119.56;4870020;29;20048;-82
2022/09/06 10:04:30;;;;;;;8.77;4.57;;;;;;;28.97;46.30;101122.88;4868562;29;20056;-81
2022/09/06 10:07:18;;;;;;;15.43;4.57;;;;;;;28.66;47.03;101114.66;4855817;29;20132;-82
2022/09/06 10:10:20;;;;;;;8.52;3.65;;;;;;;28.84;46.51;101119.94;4852812;29;20432;-82
2022/09/06 10:13:25;;;;;;;13.80;4.40;;;;;;;29.13;46.69;101114.53;4851011;29;20049;-83
2022/09/06 10:16:10;;;;;;;12.13;5.90;;;;;;;28.72;47.46;101109.38;4858724;29;20060;-82
2022/09/06 10:18:55;;;;;;;21.73;4.15;;;;;;;28.51;47.55;101113.34;4851025;29;20046;-82
2022/09/06 10:21:39;;;;;;;7.78;3.80;;;;;;;28.16;48.41;101097.19;4858135;29;20046;-81
2022/09/06 10:24:38;;;;;;;12.85;6.47;;;;;;;28.45;48.13;101098.25;4860432;29;20622;-81
2022/09/06 10:27:26;;;;;;;7.78;2.55;;;;;;;28.54;47.25;101087.31;4853692;29;20064;-82
2022/09/06 10:30:13;;;;;;;11.20;4.55;;;;;;;28.11;48.12;101084.47;4863078;29;20049;-82
2022/09/06 10:33:14;;;;;;;10.68;4.07;;;;;;;28.72;46.87;101086.97;4847762;29;20038;-80
2022/09/06 10:36:02;;;;;;;7.53;5.00;;;;;;;28.69;46.31;101088.59;4848280;29;20061;-82
2022/09/06 10:38:55;;;;;;;15.70;4.88;;;;;;;29.07;45.63;101086.22;4848374;29;20052;-81
2022/09/06 10:42:33;;;;;;;11.10;6.43;;;;;;;29.51;44.50;101084.09;4847603;29;20452;-81
2022/09/06 10:45:36;;;;;;;99.57;8.30;;;;;;;29.47;44.77;101084.16;4848784;29;20042;-80
2022/09/06 10:48:29;;;;;;;23.42;4.50;;;;;;;29.40;44.94;101073.13;4855194;29;20056;-81
2022/09/06 10:51:28;;;;;;;36.33;7.28;;;;;;;29.65;44.82;101072.53;4860340;29;20139;-81
2022/09/06 10:54:19;;;;;;;13.70;3.67;;;;;;;29.89;43.71;101075.94;4877723;29;20037;-81
2022/09/06 10:57:21;;;;;;;6.88;5.10;;;;;;;30.01;44.16;101073.25;4873324;29;20045;-81
2022/09/06 11:00:12;;;;;;;13.25;4.10;;;;;;;29.91;43.97;101068.72;4867532;29;20052;-81
2022/09/06 11:03:24;;;;;;;7.78;3.90;;;;;;;29.90;42.38;101067.13;4850176;29;20048;-81
2022/09/06 11:06:11;;;;;;;8.00;4.70;;;;;;;29.80;42.82;101056.16;4864056;29;20065;-80
2022/09/06 11:09:08;;;;;;;8.88;3.08;;;;;;;30.06;42.71;101055.91;4861033;29;20060;-81
2022/09/06 11:12:07;;;;;;;10.98;3.60;;;;;;;29.92;42.50;101041.47;4879856;29;20048;-82
2022/09/06 11:14:51;;;;;;;14.18;3.55;;;;;;;29.94;42.74;101036.97;4883399;29;20041;-81
2022/09/06 11:17:52;;;;;;;12.38;4.60;;;;;;;30.13;42.03;101043.69;4885469;29;20060;-82
2022/09/06 11:20:45;;;;;;;8.95;3.13;;;;;;;30.34;41.74;101043.09;4869136;29;20049;-82
2022/09/06 11:23:47;;;;;;;10.15;3.47;;;;;;;30.31;41.65;101041.19;4875699;29;20061;-80
2022/09/06 11:26:50;;;;;;;7.68;3.38;;;;;;;30.33;41.61;101035.91;4869243;29;20051;-80
2022/09/06 11:29:40;;;;;;;12.50;3.22;;;;;;;30.72;40.73;101037.66;4861369;29;20511;-81
2022/09/06 11:32:38;;;;;;;13.32;2.90;;;;;;;30.67;40.34;101040.22;4875191;29;20044;-82
2022/09/06 11:35:28;;;;;;;5.25;2.30;;;;;;;30.58;40.54;101029.63;4850600;29;20053;-82
2022/09/06 11:38:13;;;;;;;8.80;2.80;;;;;;;30.80;39.21;101033.38;4845752;29;20052;-82
2022/09/06 11:41:01;;;;;;;4.53;2.10;;;;;;;30.85;38.49;101018.00;4860833;29;20056;-80
2022/09/06 11:43:48;;;;;;;6.20;2.10;;;;;;;30.62;40.16;101012.69;4880777;29;20096;-81
2022/09/06 11:46:33;;;;;;;10.23;2.25;;;;;;;29.77;42.22;101005.31;4884148;29;20056;-80
2022/09/06 11:49:28;;;;;;;8.48;2.03;;;;;;;29.50;42.30;100993.63;4883073;29;20271;-82
2022/09/06 11:52:48;;;;;;;5.50;1.77;;;;;;;29.26;42.95;100997.75;4869984;29;20526;-82
2022/09/06 11:55:38;;;;;;;6.00;1.75;;;;;;;29.58;41.29;100992.19;4871927;29;20127;-81
2022/09/06 11:58:38;;;;;;;14.95;2.00;;;;;;;29.65;41.83;100994.03;4873419;29;20525;-81
2022/09/06 12:01:23;;;;;;;6.78;2.20;;;;;;;29.72;41.49;100985.44;4872078;29;20041;-82
2022/09/06 12:04:08;;;;;;;4.10;1.80;;;;;;;29.74;41.61;100988.59;4874735;29;20072;-81
2022/09/06 12:07:11;;;;;;;3.35;1.50;;;;;;;29.37;42.11;100992.72;4885181;29;20055;-82
2022/09/06 12:10:00;;;;;;;5.43;2.00;;;;;;;30.21;39.55;100993.78;4882725;29;20068;-82
2022/09/06 12:12:51;;;;;;;6.65;2.30;;;;;;;30.26;39.99;100987.63;4874653;29;20052;-81
2022/09/06 12:15:50;;;;;;;6.35;1.83;;;;;;;30.36;40.22;100983.72;4868123;29;20060;-81
2022/09/06 12:18:41;;;;;;;6.22;1.88;;;;;;;30.37;40.18;100977.69;4874194;29;20063;-81
2022/09/06 12:21:35;;;;;;;6.82;1.80;;;;;;;29.25;42.28;100966.19;4868569;29;20053;-82
2022/09/06 12:24:37;;;;;;;8.90;2.38;;;;;;;29.46;41.92;100966.91;4867058;29;20052;-82
2022/09/06 12:27:32;;;;;;;5.82;2.30;;;;;;;30.11;39.80;100970.41;4874943;29;20527;-82
2022/09/06 12:30:46;;;;;;;4.22;2.25;;;;;;;29.81;40.94;100963.19;4851378;29;20052;-81
2022/09/06 12:33:35;;;;;;;3.63;1.60;;;;;;;29.76;41.14;100960.91;4844485;29;20519;-82
2022/09/06 12:36:29;;;;;;;3.50;1.90;;;;;;;29.87;40.21;100955.03;4846056;29;20061;-81
2022/09/06 12:39:13;;;;;;;3.50;1.85;;;;;;;29.67;41.49;100964.31;4848214;29;20045;-80
2022/09/06 12:42:03;;;;;;;13.30;2.25;;;;;;;29.79;40.79;100956.44;4850621;29;20053;-81
2022/09/06 12:44:52;;;;;;;3.10;2.10;;;;;;;29.98;40.35;100947.09;4845856;29;20053;-81
2022/09/06 12:47:38;;;;;;;4.13;2.30;;;;;;;30.05;39.36;100938.50;4846999;29;20065;-82
2022/09/06 12:50:24;;;;;;;4.40;1.83;;;;;;;30.42;39.50;100935.03;4846437;29;20068;-81
2022/09/06 12:53:23;;;;;;;8.25;3.15;;;;;;;30.83;38.46;100939.03;4847302;29;20061;-81
2022/09/06 12:56:13;;;;;;;4.30;1.60;;;;;;;29.96;40.30;100933.56;4844906;29;20065;-81
2022/09/06 12:59:23;;;;;;;6.03;3.00;;;;;;;29.77;40.60;100928.81;4868458;29;20523;-82
2022/09/06 13:02:19;;;;;;;2.97;1.85;;;;;;;30.22;40.13;100917.59;4875335;29;20056;-82
2022/09/06 13:05:07;;;;;;;5.40;2.00;;;;;;;29.68;41.47;100920.25;4863324;29;20048;-82
2022/09/06 13:07:57;;;;;;;3.75;1.80;;;;;;;30.09;39.48;100911.13;4887190;29;20052;-82